Schedule Details


Flight Number: CTN700
Departure: Franjo Tudman (LDZA) at 14:00
Arrival: Lisbon (LPPT) at 16:25
Route: KOTOR?UT742?NAKIT?UL615?ROTAR?DCT?BENUS?DCT?IVLOX?DCT?DORAV?DCT?BORDI?UZ185?KOLON?UM984?DIVKO?UN975?BGR?UQ47?ASTRO?UM985?YES?UN747?SVL?UM744?ROSAL?UZ227?EXONA

Weather Information
LDZA 112200Z 24014KT 200V280 CAVOK 20/11 Q1007 BECMG 24008KT
LPPT 112200Z 24008KT 9999 FEW030 15/09 Q1023
Schedule Frequency

Route Map